Bethania, North Carolina
Current Conditions -  °F | °C
As of 5:54 AM on Sunday 21 Dec 2014 (Local Time) from KINT Reporting Station
Haze Haze  
Wind Chill: 38°   Ceiling: 2400
Heat Index: 38°   Visibility: 6mi
Dew Point: 33°   Wind: 0mph
Humidity: 83%   Direction: NA
Pressure: 30.25"   Gusts: NA
Location:  36.18°N, 80.34°W
Report Text: KINT 211054Z AUTO 00000KT 6SM HZ OVC024 03/01 A3025 RMK AO2 SLP248 T00330006
Loading
Personal Weather Stations






























Interactive Weather Map New forecast layout! Learn more

10-Day Weather Forecast

Advertisements
Track Severe Weather on mobile